Time;durP1;ratioP1;P1;durP2;ratioP2;P2;SDS_P1;SDS_P2;PMS_P1;PMS_P2;Temp;Humidity;BMP_temperature;BMP_pressure;BME280_temperature;BME280_humidity;BME280_pressure;Samples;Min_cycle;Max_cycle;Signal;HPM_P1;HPM_P2
2023/03/16 00:00:56;;;;;;;5.43;1.33;;;;;;;;;;5086493;28;20047;-74
2023/03/16 00:03:29;;;;;;;3.03;1.42;;;;;;;;;;5086356;28;20059;-75
2023/03/16 00:05:59;;;;;;;3.38;1.23;;;;;;;;;;5086086;28;20052;-75
2023/03/16 00:08:30;;;;;;;5.00;2.03;;;;;;;;;;5086312;28;20052;-75
2023/03/16 00:11:01;;;;;;;8.25;1.42;;;;;;;;;;5084147;28;20516;-74
2023/03/16 00:13:32;;;;;;;2.78;1.20;;;;;;;;;;5086237;28;20056;-74
2023/03/16 00:16:06;;;;;;;5.25;1.65;;;;;;;;;;5090333;28;20048;-76
2023/03/16 00:18:40;;;;;;;3.28;1.42;;;;;;;;;;5090044;28;20051;-75
2023/03/16 00:21:14;;;;;;;4.13;1.30;;;;;;;;;;5090219;28;20514;-73
2023/03/16 00:23:45;;;;;;;2.53;1.50;;;;;;;;;;5104469;28;20040;-74
2023/03/16 00:26:16;;;;;;;3.00;1.40;;;;;;;;;;5110512;28;20048;-75
2023/03/16 00:28:46;;;;;;;3.75;1.45;;;;;;;;;;5108691;28;20063;-74
2023/03/16 00:31:18;;;;;;;2.22;1.27;;;;;;;;;;5110415;28;20058;-74
2023/03/16 00:33:49;;;;;;;2.60;1.27;;;;;;;;;;5108059;28;20541;-75
2023/03/16 00:36:21;;;;;;;3.28;1.25;;;;;;;;;;5108225;28;20529;-75
2023/03/16 00:38:52;;;;;;;3.45;1.25;;;;;;;;;;5110044;28;20493;-72
2023/03/16 00:41:25;;;;;;;2.78;1.20;;;;;;;;;;5110566;28;20039;-74
2023/03/16 00:43:56;;;;;;;4.22;1.58;;;;;;;;;;5110144;28;20401;-74
2023/03/16 00:46:27;;;;;;;2.78;1.30;;;;;;;;;;5110135;28;20048;-72
2023/03/16 00:48:57;;;;;;;4.70;1.55;;;;;;;;;;5108489;28;20402;-74
2023/03/16 00:51:32;;;;;;;5.32;1.60;;;;;;;;;;5110348;28;20047;-74
2023/03/16 00:54:04;;;;;;;;;;;;;;;;;;5110653;28;20908;-73
2023/03/16 00:56:34;;;;;;;5.57;2.00;;;;;;;;;;5110375;28;19930;-72
2023/03/16 00:59:05;;;;;;;3.53;1.38;;;;;;;;;;5110874;28;20052;-75
2023/03/16 01:01:36;;;;;;;3.15;1.23;;;;;;;;;;5109953;28;20044;-75
2023/03/16 01:04:08;;;;;;;5.13;1.55;;;;;;;;;;5103001;28;20513;-74
2023/03/16 01:06:38;;;;;;;3.97;1.35;;;;;;;;;;5088169;28;20522;-74
2023/03/16 01:09:09;;;;;;;6.22;1.65;;;;;;;;;;5092829;28;20070;-71
2023/03/16 01:11:44;;;;;;;8.50;4.70;;;;;;;;;;5104833;28;20048;-72
2023/03/16 01:14:14;;;;;;;5.90;1.98;;;;;;;;;;5098199;28;20036;-75
2023/03/16 01:16:44;;;;;;;4.28;1.30;;;;;;;;;;5107221;28;20063;-75
2023/03/16 01:19:17;;;;;;;5.80;1.65;;;;;;;;;;5106975;28;20510;-74
2023/03/16 01:21:48;;;;;;;7.80;1.77;;;;;;;;;;5107357;28;20051;-75
2023/03/16 01:24:20;;;;;;;3.95;1.63;;;;;;;;;;5109295;28;20809;-74
2023/03/16 01:26:51;;;;;;;8.32;2.00;;;;;;;;;;5107890;28;20050;-75
2023/03/16 01:29:22;;;;;;;4.28;1.63;;;;;;;;;;5107636;28;20049;-75
2023/03/16 01:31:54;;;;;;;4.05;1.63;;;;;;;;;;5107586;28;20048;-75
2023/03/16 01:34:26;;;;;;;3.17;1.38;;;;;;;;;;5108504;28;20058;-73
2023/03/16 01:36:56;;;;;;;4.78;1.65;;;;;;;;;;5090499;28;20841;-75
2023/03/16 01:39:44;;;;;;;5.45;2.10;;;;;;;;;;5109599;28;20425;-75
2023/03/16 01:42:15;;;;;;;4.38;1.85;;;;;;;;;;5107776;28;20407;-72
2023/03/16 01:44:53;;;;;;;6.50;1.80;;;;;;;;;;5107709;28;20052;-76
2023/03/16 01:47:29;;;;;;;4.13;1.75;;;;;;;;;;5107876;28;20040;-74
2023/03/16 01:49:59;;;;;;;3.05;1.60;;;;;;;;;;5098672;28;20518;-73
2023/03/16 01:52:36;;;;;;;7.30;1.40;;;;;;;;;;5086693;28;20526;-73
2023/03/16 01:55:12;;;;;;;3.90;1.52;;;;;;;;;;5088628;28;20111;-73
2023/03/16 01:57:46;;;;;;;5.25;1.92;;;;;;;;;;5088683;28;20039;-74
2023/03/16 02:00:22;;;;;;;4.18;1.48;;;;;;;;;;5086413;28;20056;-74
2023/03/16 02:03:07;;;;;;;;;;;;;;;;;;5087497;28;20060;-74
2023/03/16 02:05:51;;;;;;;5.10;1.50;;;;;;;;;;5086683;28;20390;-75
2023/03/16 02:08:24;;;;;;;3.20;1.13;;;;;;;;;;5085693;28;20055;-73
2023/03/16 02:10:56;;;;;;;4.10;1.40;;;;;;;;;;5085760;28;20530;-74
2023/03/16 02:13:38;;;;;;;4.63;1.40;;;;;;;;;;5087104;28;20056;-74
2023/03/16 02:16:11;;;;;;;3.63;1.13;;;;;;;;;;5086878;28;20659;-74
2023/03/16 02:18:42;;;;;;;2.22;0.95;;;;;;;;;;5086292;28;20052;-75
2023/03/16 02:21:55;;;;;;;5.68;1.33;;;;;;;;;;5086341;28;20063;-75
2023/03/16 02:24:26;;;;;;;5.50;1.30;;;;;;;;;;5070929;28;20418;-74
2023/03/16 02:27:04;;;;;;;4.05;1.42;;;;;;;;;;5086605;28;20048;-74
2023/03/16 02:29:52;;;;;;;2.42;1.25;;;;;;;;;;5086124;28;20055;-74
2023/03/16 02:32:28;;;;;;;3.63;1.33;;;;;;;;;;5086020;28;20050;-75
2023/03/16 02:35:01;;;;;;;5.65;1.20;;;;;;;;;;5084019;28;20052;-74
2023/03/16 02:37:32;;;;;;;4.97;1.33;;;;;;;;;;5086042;28;20036;-75
2023/03/16 02:40:22;;;;;;;6.25;1.67;;;;;;;;;;5085176;28;20056;-74
2023/03/16 02:43:04;;;;;;;4.18;1.23;;;;;;;;;;5084914;28;20044;-74
2023/03/16 02:45:56;;;;;;;3.05;1.30;;;;;;;;;;5086200;28;20525;-75
2023/03/16 02:48:41;;;;;;;4.22;1.50;;;;;;;;;;5085089;28;20056;-75
2023/03/16 02:51:13;;;;;;;6.00;1.58;;;;;;;;;;5086058;28;20055;-76
2023/03/16 02:53:43;;;;;;;6.60;1.58;;;;;;;;;;5086007;28;20044;-75
2023/03/16 02:56:14;;;;;;;5.35;1.65;;;;;;;;;;5085792;28;20419;-73
2023/03/16 02:58:44;;;;;;;4.07;1.50;;;;;;;;;;5087856;28;20037;-73
2023/03/16 03:01:18;;;;;;;5.82;1.77;;;;;;;;;;5085860;28;20079;-73
2023/03/16 03:03:50;;;;;;;4.18;1.83;;;;;;;;;;5085282;28;20533;-74
2023/03/16 03:06:21;;;;;;;3.75;1.80;;;;;;;;;;5087091;28;20040;-73
2023/03/16 03:08:51;;;;;;;5.40;2.05;;;;;;;;;;5087107;28;20407;-74
2023/03/16 03:11:22;;;;;;;5.50;2.13;;;;;;;;;;5069449;28;20056;-74
2023/03/16 03:13:54;;;;;;;5.78;2.35;;;;;;;;;;5087811;28;20055;-74
2023/03/16 03:16:27;;;;;;;3.47;2.15;;;;;;;;;;5085849;28;20067;-72
2023/03/16 03:18:59;;;;;;;7.45;2.72;;;;;;;;;;5085322;28;20411;-72
2023/03/16 03:21:35;;;;;;;4.40;2.47;;;;;;;;;;5085508;28;20052;-72
2023/03/16 03:24:08;;;;;;;8.52;2.60;;;;;;;;;;5069274;28;20442;-72
2023/03/16 03:26:38;;;;;;;4.53;2.63;;;;;;;;;;5087212;28;20047;-71
2023/03/16 03:29:17;;;;;;;9.93;3.20;;;;;;;;;;5084400;28;20056;-71
2023/03/16 03:31:48;;;;;;;5.10;2.70;;;;;;;;;;5087372;28;20063;-72
2023/03/16 03:34:18;;;;;;;5.90;2.85;;;;;;;;;;5087057;28;20040;-71
2023/03/16 03:36:48;;;;;;;7.03;2.72;;;;;;;;;;5086505;28;20050;-72
2023/03/16 03:39:18;;;;;;;5.28;2.75;;;;;;;;;;5085113;28;20055;-71
2023/03/16 03:41:54;;;;;;;6.15;3.10;;;;;;;;;;5085084;28;20063;-72
2023/03/16 03:44:25;;;;;;;5.93;3.25;;;;;;;;;;5084675;28;20048;-72
2023/03/16 03:46:56;;;;;;;7.20;3.15;;;;;;;;;;5084817;28;20052;-73
2023/03/16 03:49:27;;;;;;;6.72;3.33;;;;;;;;;;5084447;28;20052;-74
2023/03/16 03:52:00;;;;;;;5.47;2.80;;;;;;;;;;5086996;28;20494;-74
2023/03/16 03:54:31;;;;;;;5.22;2.65;;;;;;;;;;5086840;28;20040;-74
2023/03/16 03:57:13;;;;;;;6.53;2.95;;;;;;;;;;5084277;28;20047;-72
2023/03/16 03:59:45;;;;;;;6.22;3.35;;;;;;;;;;5085654;28;20044;-73
2023/03/16 04:02:16;;;;;;;5.80;3.30;;;;;;;;;;5085885;28;20065;-74
2023/03/16 04:04:54;;;;;;;8.23;3.72;;;;;;;;;;5086067;28;20040;-76
2023/03/16 04:07:24;;;;;;;5.53;3.38;;;;;;;;;;5084554;28;20063;-73
2023/03/16 04:09:57;;;;;;;3.88;3.00;;;;;;;;;;5084064;28;20048;-75
2023/03/16 04:12:35;;;;;;;6.55;3.60;;;;;;;;;;5084316;28;20059;-75
2023/03/16 04:15:08;;;;;;;6.78;3.78;;;;;;;;;;5068339;28;20506;-73
2023/03/16 04:17:59;;;;;;;5.43;3.10;;;;;;;;;;5085961;28;20082;-73
2023/03/16 04:20:29;;;;;;;7.45;3.78;;;;;;;;;;5085088;28;20044;-75
2023/03/16 04:23:00;;;;;;;6.05;3.38;;;;;;;;;;5084268;28;20052;-72
2023/03/16 04:25:31;;;;;;;5.55;3.33;;;;;;;;;;5084831;28;20498;-72
2023/03/16 04:28:04;;;;;;;3.92;3.15;;;;;;;;;;5084140;28;20624;-72
2023/03/16 04:30:37;;;;;;;4.20;2.95;;;;;;;;;;5084497;28;20052;-71
2023/03/16 04:33:22;;;;;;;6.38;3.33;;;;;;;;;;5069519;28;20538;-74
2023/03/16 04:35:53;;;;;;;4.68;3.40;;;;;;;;;;5084141;28;20052;-71
2023/03/16 04:38:24;;;;;;;7.03;3.58;;;;;;;;;;5083497;28;20060;-70
2023/03/16 04:40:57;;;;;;;6.22;3.75;;;;;;;;;;5084300;28;20051;-71
2023/03/16 04:43:35;;;;;;;5.30;3.75;;;;;;;;;;5084429;28;20067;-73
2023/03/16 04:46:15;;;;;;;6.25;4.13;;;;;;;;;;5083872;28;20056;-71
2023/03/16 04:48:46;;;;;;;7.07;3.45;;;;;;;;;;5084227;28;20055;-73
2023/03/16 04:51:15;;;;;;;6.05;3.50;;;;;;;;;;5084483;28;20059;-73
2023/03/16 04:54:01;;;;;;;7.28;3.70;;;;;;;;;;5084484;28;20048;-72
2023/03/16 04:56:40;;;;;;;6.05;3.85;;;;;;;;;;5084309;28;20071;-73
2023/03/16 04:59:19;;;;;;;9.05;3.78;;;;;;;;;;5069984;28;20056;-72
2023/03/16 05:01:58;;;;;;;6.90;3.67;;;;;;;;;;5087645;28;20048;-73
2023/03/16 05:04:29;;;;;;;6.45;3.70;;;;;;;;;;5087488;28;20048;-73
2023/03/16 05:07:00;;;;;;;6.70;3.53;;;;;;;;;;5088262;28;20048;-72
2023/03/16 05:09:35;;;;;;;7.85;3.80;;;;;;;;;;5087464;28;20826;-71
2023/03/16 05:12:06;;;;;;;8.45;4.03;;;;;;;;;;5087308;28;20048;-71
2023/03/16 05:14:36;;;;;;;9.57;4.05;;;;;;;;;;5087350;28;20063;-72
2023/03/16 05:17:21;;;;;;;8.63;3.58;;;;;;;;;;5088311;28;20051;-71
2023/03/16 05:19:52;;;;;;;9.13;4.28;;;;;;;;;;5088104;28;20055;-74
2023/03/16 05:22:23;;;;;;;6.10;3.53;;;;;;;;;;5088497;28;20051;-72
2023/03/16 05:25:13;;;;;;;7.82;4.15;;;;;;;;;;5087440;28;20048;-70
2023/03/16 05:27:50;;;;;;;8.63;3.92;;;;;;;;;;5087020;28;20052;-71
2023/03/16 05:30:35;;;;;;;6.03;4.15;;;;;;;;;;5087129;28;20056;-73
2023/03/16 05:33:11;;;;;;;6.60;4.00;;;;;;;;;;5087090;28;20063;-71
2023/03/16 05:35:41;;;;;;;7.18;4.03;;;;;;;;;;5087841;28;20055;-72
2023/03/16 05:38:14;;;;;;;6.00;3.80;;;;;;;;;;5087377;28;20068;-73
2023/03/16 05:40:51;;;;;;;6.95;4.57;;;;;;;;;;5087640;28;20471;-72
2023/03/16 05:43:38;;;;;;;6.32;3.80;;;;;;;;;;5087114;28;20403;-70
2023/03/16 05:46:08;;;;;;;7.60;4.18;;;;;;;;;;5087241;28;20048;-73
2023/03/16 05:48:39;;;;;;;6.93;4.22;;;;;;;;;;5087283;28;20059;-73
2023/03/16 05:51:13;;;;;;;7.90;4.05;;;;;;;;;;5086750;28;20083;-72
2023/03/16 05:53:45;;;;;;;8.15;4.40;;;;;;;;;;5086995;28;20056;-72
2023/03/16 05:56:28;;;;;;;6.40;3.90;;;;;;;;;;5086726;28;20056;-71
2023/03/16 05:59:01;;;;;;;7.90;4.35;;;;;;;;;;5086481;28;20613;-73
2023/03/16 06:01:33;;;;;;;8.88;4.00;;;;;;;;;;5086882;28;20067;-73
2023/03/16 06:04:04;;;;;;;7.57;3.97;;;;;;;;;;5086362;28;20044;-73
2023/03/16 06:06:37;;;;;;;7.05;4.40;;;;;;;;;;5086682;28;20055;-73
2023/03/16 06:09:17;;;;;;;5.80;3.92;;;;;;;;;;5086655;28;20048;-70
2023/03/16 06:11:47;;;;;;;6.80;3.85;;;;;;;;;;5086034;28;20048;-73
2023/03/16 06:14:18;;;;;;;6.28;3.85;;;;;;;;;;5086251;28;20062;-71
2023/03/16 06:16:50;;;;;;;5.10;3.85;;;;;;;;;;5086534;28;20059;-73
2023/03/16 06:19:22;;;;;;;6.65;4.30;;;;;;;;;;5086763;28;20048;-72
2023/03/16 06:21:59;;;;;;;8.50;3.83;;;;;;;;;;5086282;28;20055;-71
2023/03/16 06:24:29;;;;;;;8.07;4.05;;;;;;;;;;5085760;28;20048;-73
2023/03/16 06:26:59;;;;;;;8.27;3.80;;;;;;;;;;5088194;28;20622;-73
2023/03/16 06:29:35;;;;;;;6.10;4.38;;;;;;;;;;5087086;28;20507;-74
2023/03/16 06:32:05;;;;;;;7.10;4.97;;;;;;;;;;5086545;28;20079;-71
2023/03/16 06:34:36;;;;;;;7.38;3.70;;;;;;;;;;5086011;28;20051;-73
2023/03/16 06:37:07;;;;;;;5.47;3.55;;;;;;;;;;5070013;28;20052;-73
2023/03/16 06:39:38;;;;;;;7.15;3.85;;;;;;;;;;5085872;28;20059;-74
2023/03/16 06:42:08;;;;;;;6.93;3.80;;;;;;;;;;5085157;28;20067;-72
2023/03/16 06:44:41;;;;;;;7.78;3.95;;;;;;;;;;5086074;28;20063;-72
2023/03/16 06:47:13;;;;;;;9.20;4.13;;;;;;;;;;5086224;28;20052;-73
2023/03/16 06:49:45;;;;;;;6.47;3.75;;;;;;;;;;5085998;28;20056;-72
2023/03/16 06:52:21;;;;;;;6.18;3.38;;;;;;;;;;5085039;28;20055;-73
2023/03/16 06:54:53;;;;;;;7.22;3.72;;;;;;;;;;5086667;28;20059;-73
2023/03/16 06:57:24;;;;;;;7.80;4.03;;;;;;;;;;5085524;28;20067;-73
2023/03/16 06:59:54;;;;;;;6.43;3.85;;;;;;;;;;5087758;28;20052;-72
2023/03/16 07:02:24;;;;;;;6.80;4.20;;;;;;;;;;5087909;28;20518;-71
2023/03/16 07:04:55;;;;;;;5.53;3.65;;;;;;;;;;5084682;28;20399;-72
2023/03/16 07:07:26;;;;;;;23.98;4.63;;;;;;;;;;5086383;28;20040;-72
2023/03/16 07:09:56;;;;;;;9.88;3.38;;;;;;;;;;5085869;28;20062;-72
2023/03/16 07:12:26;;;;;;;8.25;3.25;;;;;;;;;;5087397;28;20411;-72
2023/03/16 07:14:56;;;;;;;6.65;3.53;;;;;;;;;;5087272;28;20036;-72
2023/03/16 07:17:28;;;;;;;5.53;3.33;;;;;;;;;;5084968;28;20411;-73
2023/03/16 07:19:59;;;;;;;8.05;4.25;;;;;;;;;;5085409;28;20052;-73
2023/03/16 07:22:29;;;;;;;9.23;3.97;;;;;;;;;;5084999;28;20074;-71
2023/03/16 07:25:01;;;;;;;5.40;3.70;;;;;;;;;;5084216;28;20056;-72
2023/03/16 07:27:31;;;;;;;6.63;3.53;;;;;;;;;;5085421;28;20055;-73
2023/03/16 07:30:07;;;;;;;7.30;3.33;;;;;;;;;;5085556;28;20048;-73
2023/03/16 07:32:41;;;;;;;5.22;3.53;;;;;;;;;;5085308;28;20056;-70
2023/03/16 07:35:11;;;;;;;7.10;3.40;;;;;;;;;;5084610;28;20056;-72
2023/03/16 07:37:42;;;;;;;7.22;3.63;;;;;;;;;;5085490;28;20056;-72
2023/03/16 07:40:14;;;;;;;7.00;3.60;;;;;;;;;;5084791;28;20048;-73
2023/03/16 07:42:44;;;;;;;6.13;3.33;;;;;;;;;;5085089;28;20059;-71
2023/03/16 07:45:25;;;;;;;5.05;3.67;;;;;;;;;;5084681;28;20048;-70
2023/03/16 07:47:57;;;;;;;5.38;3.40;;;;;;;;;;5085485;28;20056;-73
2023/03/16 07:50:41;;;;;;;6.03;3.58;;;;;;;;;;5084092;28;20048;-74
2023/03/16 07:53:14;;;;;;;7.78;3.47;;;;;;;;;;5086948;28;20201;-73
2023/03/16 07:55:49;;;;;;;4.60;3.50;;;;;;;;;;5084732;28;20075;-73
2023/03/16 07:58:21;;;;;;;6.78;3.35;;;;;;;;;;5086895;28;20067;-73
2023/03/16 08:00:55;;;;;;;4.95;3.42;;;;;;;;;;5084326;28;20059;-71
2023/03/16 08:03:26;;;;;;;5.75;3.78;;;;;;;;;;5084543;28;20505;-74
2023/03/16 08:05:57;;;;;;;5.82;3.38;;;;;;;;;;5084745;28;20078;-71
2023/03/16 08:08:28;;;;;;;5.43;3.50;;;;;;;;;;5084441;28;20044;-73
2023/03/16 08:10:59;;;;;;;5.22;3.63;;;;;;;;;;5083967;28;20652;-73
2023/03/16 08:13:55;;;;;;;5.18;3.25;;;;;;;;;;5084562;28;20063;-71
2023/03/16 08:16:38;;;;;;;8.73;3.55;;;;;;;;;;5084205;28;20055;-72
2023/03/16 08:19:10;;;;;;;8.20;3.53;;;;;;;;;;5084264;28;20052;-73
2023/03/16 08:21:42;;;;;;;9.70;3.67;;;;;;;;;;5084554;28;20059;-72
2023/03/16 08:24:37;;;;;;;6.28;3.53;;;;;;;;;;5086836;28;20055;-72
2023/03/16 08:27:10;;;;;;;6.90;3.40;;;;;;;;;;5084262;28;20605;-73
2023/03/16 08:29:45;;;;;;;4.78;3.40;;;;;;;;;;5068830;28;20053;-74
2023/03/16 08:32:18;;;;;;;14.85;3.83;;;;;;;;;;5083966;28;20515;-72
2023/03/16 08:34:49;;;;;;;6.68;3.45;;;;;;;;;;5085074;28;20087;-72
2023/03/16 08:37:20;;;;;;;4.25;3.20;;;;;;;;;;5093411;28;20052;-74
2023/03/16 08:39:53;;;;;;;5.60;3.15;;;;;;;;;;5091195;28;20044;-75
2023/03/16 08:42:24;;;;;;;4.47;3.05;;;;;;;;;;5090859;28;20056;-77
2023/03/16 08:45:08;;;;;;;5.30;3.00;;;;;;;;;;5090791;28;20048;-76
2023/03/16 08:47:44;;;;;;;6.32;3.65;;;;;;;;;;5091915;28;20044;-74
2023/03/16 08:50:18;;;;;;;6.82;3.40;;;;;;;;;;5090806;28;20617;-74
2023/03/16 08:52:49;;;;;;;5.30;3.03;;;;;;;;;;5092082;28;20059;-77
2023/03/16 08:55:19;;;;;;;9.20;3.38;;;;;;;;;;5090073;28;20048;-78
2023/03/16 08:57:50;;;;;;;5.45;3.40;;;;;;;;;;5091394;28;20040;-75
2023/03/16 09:00:22;;;;;;;14.15;3.88;;;;;;;;;;5098942;28;20044;-74
2023/03/16 09:02:53;;;;;;;5.63;3.00;;;;;;;;;;5098401;28;20519;-77
2023/03/16 09:05:24;;;;;;;5.47;2.67;;;;;;;;;;5096528;28;20438;-75
2023/03/16 09:07:55;;;;;;;4.57;2.78;;;;;;;;;;5100195;28;20403;-73
2023/03/16 09:10:26;;;;;;;8.27;3.20;;;;;;;;;;5096037;28;20055;-75
2023/03/16 09:12:58;;;;;;;7.70;2.85;;;;;;;;;;5097485;28;20048;-73
2023/03/16 09:15:28;;;;;;;5.25;3.00;;;;;;;;;;5092896;28;20040;-77
2023/03/16 09:18:02;;;;;;;8.68;2.90;;;;;;;;;;5091898;28;20043;-75
2023/03/16 09:20:33;;;;;;;7.53;2.92;;;;;;;;;;5092853;28;20047;-74
2023/03/16 09:23:04;;;;;;;16.67;3.20;;;;;;;;;;5094178;28;20052;-76
2023/03/16 09:25:34;;;;;;;16.98;3.53;;;;;;;;;;5094360;28;20060;-77
2023/03/16 09:28:05;;;;;;;19.20;3.30;;;;;;;;;;5095427;28;20056;-78
2023/03/16 09:30:37;;;;;;;12.45;3.20;;;;;;;;;;5098382;28;20043;-74
2023/03/16 09:33:07;;;;;;;7.22;2.83;;;;;;;;;;5098389;28;20048;-74
2023/03/16 09:35:38;;;;;;;5.45;2.42;;;;;;;;;;5099321;28;20058;-75
2023/03/16 09:38:08;;;;;;;3.83;2.38;;;;;;;;;;5097188;28;20445;-75
2023/03/16 09:40:40;;;;;;;6.10;2.72;;;;;;;;;;5096490;28;20054;-76
2023/03/16 09:43:42;;;;;;;4.03;2.20;;;;;;;;;;5095650;28;20055;-76
2023/03/16 09:46:35;;;;;;;6.10;2.72;;;;;;;;;;5095031;28;20048;-73
2023/03/16 09:49:09;;;;;;;9.00;3.13;;;;;;;;;;5096788;28;20051;-74
2023/03/16 09:51:55;;;;;;;6.70;2.78;;;;;;;;;;5093596;28;20052;-74
2023/03/16 09:54:42;;;;;;;10.65;3.22;;;;;;;;;;5094919;28;20648;-78
2023/03/16 09:57:35;;;;;;;7.38;2.70;;;;;;;;;;5089974;28;20055;-79
2023/03/16 10:00:16;;;;;;;4.63;2.50;;;;;;;;;;5091707;28;20055;-76
2023/03/16 10:02:57;;;;;;;4.85;2.60;;;;;;;;;;5092850;28;20040;-77
2023/03/16 10:05:28;;;;;;;9.23;2.65;;;;;;;;;;5111103;28;20036;-76
2023/03/16 10:08:11;;;;;;;17.90;3.33;;;;;;;;;;5111665;28;20043;-76
2023/03/16 10:10:54;;;;;;;10.90;2.85;;;;;;;;;;5113396;28;20051;-76
2023/03/16 10:13:46;;;;;;;20.50;3.28;;;;;;;;;;5114845;28;20055;-78
2023/03/16 10:16:23;;;;;;;18.48;3.05;;;;;;;;;;5113380;28;20040;-76
2023/03/16 10:19:23;;;;;;;13.30;3.05;;;;;;;;;;5114855;28;20087;-76
2023/03/16 10:21:57;;;;;;;9.20;2.83;;;;;;;;;;5114963;28;20062;-73
2023/03/16 10:24:38;;;;;;;11.68;2.80;;;;;;;;;;5114491;28;20038;-78
2023/03/16 10:27:18;;;;;;;10.88;2.70;;;;;;;;;;5111693;28;20051;-79
2023/03/16 10:29:48;;;;;;;17.20;2.70;;;;;;;;;;5113349;28;20051;-76
2023/03/16 10:32:20;;;;;;;16.23;3.33;;;;;;;;;;5114975;28;20051;-77
2023/03/16 10:34:59;;;;;;;15.20;3.00;;;;;;;;;;5113691;28;20048;-74
2023/03/16 10:37:31;;;;;;;7.38;2.33;;;;;;;;;;5114071;28;20055;-79
2023/03/16 10:40:08;;;;;;;9.10;2.60;;;;;;;;;;5113681;28;20406;-76
2023/03/16 10:42:38;;;;;;;8.57;2.65;;;;;;;;;;5111849;28;20044;-78
2023/03/16 10:45:30;;;;;;;5.78;2.20;;;;;;;;;;5111263;28;20054;-76
2023/03/16 10:48:21;;;;;;;9.98;1.63;;;;;;;;;;5112744;28;20055;-78
2023/03/16 10:50:57;;;;;;;3.40;1.42;;;;;;;;;;5112574;28;20043;-77
2023/03/16 10:53:31;;;;;;;1.80;1.60;;;;;;;;;;5109797;28;20055;-78
2023/03/16 10:56:21;;;;;;;4.07;1.38;;;;;;;;;;5106137;28;20039;-76
2023/03/16 10:58:52;;;;;;;5.38;1.77;;;;;;;;;;5089189;28;20510;-75
2023/03/16 11:01:27;;;;;;;10.82;2.35;;;;;;;;;;5108390;28;20083;-75
2023/03/16 11:03:58;;;;;;;7.20;1.77;;;;;;;;;;5109147;28;20044;-78
2023/03/16 11:06:32;;;;;;;3.22;1.50;;;;;;;;;;5100454;28;20570;-76
2023/03/16 11:09:13;;;;;;;6.68;1.85;;;;;;;;;;5087561;28;20036;-77
2023/03/16 11:11:48;;;;;;;15.15;1.67;;;;;;;;;;5110920;28;20047;-76
2023/03/16 11:14:24;;;;;;;4.88;1.30;;;;;;;;;;5110388;28;20054;-76
2023/03/16 11:17:11;;;;;;;3.90;1.65;;;;;;;;;;5112311;28;20056;-76
2023/03/16 11:19:50;;;;;;;4.75;1.52;;;;;;;;;;5108540;28;20043;-77
2023/03/16 11:22:28;;;;;;;4.85;2.70;;;;;;;;;;5103669;28;20046;-78
2023/03/16 11:25:08;;;;;;;6.40;1.40;;;;;;;;;;5089343;28;20054;-76
2023/03/16 11:27:58;;;;;;;4.20;1.45;;;;;;;;;;5092325;28;20461;-79
2023/03/16 11:30:36;;;;;;;5.13;1.40;;;;;;;;;;5086348;28;20541;-75
2023/03/16 11:33:14;;;;;;;5.28;1.20;;;;;;;;;;5088329;28;20383;-78
2023/03/16 11:35:44;;;;;;;4.10;1.42;;;;;;;;;;5089733;28;20044;-77
2023/03/16 11:38:46;;;;;;;2.70;1.33;;;;;;;;;;5085793;28;20055;-79
2023/03/16 11:41:32;;;;;;;2.95;1.20;;;;;;;;;;5088122;28;20061;-76
2023/03/16 11:44:36;;;;;;;5.82;1.80;;;;;;;;;;5087088;28;20044;-79
2023/03/16 11:47:21;;;;;;;7.10;1.80;;;;;;;;;;5086819;28;20040;-74
2023/03/16 11:50:15;;;;;;;4.50;2.72;;;;;;;;;;5085919;28;20047;-77
2023/03/16 11:53:01;;;;;;;4.80;2.03;;;;;;;;;;5087066;28;20075;-81
2023/03/16 11:55:44;;;;;;;2.95;1.23;;;;;;;;;;5086399;28;20503;-73
2023/03/16 11:58:27;;;;;;;4.18;1.25;;;;;;;;;;5087269;28;20048;-77
2023/03/16 12:01:27;;;;;;;4.88;1.42;;;;;;;;;;5086494;28;20040;-78
2023/03/16 12:04:23;;;;;;;8.93;1.50;;;;;;;;;;5080267;28;20556;-75
2023/03/16 12:07:22;;;;;;;4.65;1.50;;;;;;;;;;5086450;28;20044;-75
2023/03/16 12:10:19;;;;;;;1.88;1.13;;;;;;;;;;5086544;28;20051;-74
2023/03/16 12:13:11;;;;;;;3.10;1.30;;;;;;;;;;5091074;28;20498;-79
2023/03/16 12:15:46;;;;;;;2.60;1.40;;;;;;;;;;5090894;28;20055;-76
2023/03/16 12:18:33;;;;;;;4.15;1.60;;;;;;;;;;5090505;28;20046;-77
2023/03/16 12:21:31;;;;;;;6.32;1.63;;;;;;;;;;5090153;28;20050;-76
2023/03/16 12:24:10;;;;;;;6.88;1.33;;;;;;;;;;5091102;28;20522;-76
2023/03/16 12:26:42;;;;;;;2.35;1.05;;;;;;;;;;5090358;28;20048;-77
2023/03/16 12:30:00;;;;;;;2.30;0.93;;;;;;;;;;5090522;28;20044;-78
2023/03/16 12:32:41;;;;;;;3.08;2.25;;;;;;;;;;5068312;28;20045;-79
2023/03/16 12:35:36;;;;;;;1.67;1.05;;;;;;;;;;5089142;28;20060;-79
2023/03/16 12:38:36;;;;;;;4.63;1.30;;;;;;;;;;5090453;28;20060;-74
2023/03/16 12:41:19;;;;;;;3.00;1.10;;;;;;;;;;5090446;28;20518;-75
2023/03/16 12:44:04;;;;;;;2.47;0.90;;;;;;;;;;5090645;28;20051;-79
2023/03/16 12:46:58;;;;;;;2.58;0.70;;;;;;;;;;5090480;28;20040;-78
2023/03/16 12:49:33;;;;;;;3.90;0.98;;;;;;;;;;5090163;28;20044;-76
2023/03/16 12:52:08;;;;;;;3.97;2.05;;;;;;;;;;5089308;28;20056;-75
2023/03/16 12:55:04;;;;;;;5.85;1.25;;;;;;;;;;5090229;28;20046;-78
2023/03/16 12:57:35;;;;;;;5.30;1.30;;;;;;;;;;5090306;28;20048;-76
2023/03/16 13:00:08;;;;;;;2.40;1.10;;;;;;;;;;5089864;28;20110;-76
2023/03/16 13:02:49;;;;;;;3.55;1.10;;;;;;;;;;5089744;28;20044;-78
2023/03/16 13:05:33;;;;;;;2.92;1.40;;;;;;;;;;5089966;28;20055;-77
2023/03/16 13:08:22;;;;;;;4.38;1.25;;;;;;;;;;5088721;28;20051;-76
2023/03/16 13:11:19;;;;;;;5.07;1.20;;;;;;;;;;5088884;28;20407;-77
2023/03/16 13:13:53;;;;;;;1.17;1.00;;;;;;;;;;5089098;28;20060;-78
2023/03/16 13:16:29;;;;;;;2.45;1.30;;;;;;;;;;5089770;28;20048;-77
2023/03/16 13:19:00;;;;;;;2.13;0.93;;;;;;;;;;5090163;28;20040;-77
2023/03/16 13:21:40;;;;;;;2.85;1.67;;;;;;;;;;5091231;28;20059;-78
2023/03/16 13:24:35;;;;;;;3.95;1.77;;;;;;;;;;5088656;28;20066;-81
2023/03/16 13:27:18;;;;;;;4.10;1.30;;;;;;;;;;5089499;28;20218;-79
2023/03/16 13:30:00;;;;;;;1.95;1.00;;;;;;;;;;5089233;28;20048;-79
2023/03/16 13:32:32;;;;;;;6.32;1.80;;;;;;;;;;5089413;28;20048;-77
2023/03/16 13:35:05;;;;;;;3.75;1.05;;;;;;;;;;5089800;28;20056;-78
2023/03/16 13:37:40;;;;;;;3.70;1.05;;;;;;;;;;5090960;28;20490;-76
2023/03/16 13:40:24;;;;;;;9.13;1.00;;;;;;;;;;5089282;28;20047;-77
2023/03/16 13:42:57;;;;;;;3.80;1.25;;;;;;;;;;5089747;28;20052;-78
2023/03/16 13:45:33;;;;;;;3.03;0.88;;;;;;;;;;5089185;28;20052;-78
2023/03/16 13:48:04;;;;;;;3.33;1.13;;;;;;;;;;5088653;28;20047;-77
2023/03/16 13:50:38;;;;;;;2.22;1.05;;;;;;;;;;5088907;28;20056;-76
2023/03/16 13:53:27;;;;;;;0.85;0.65;;;;;;;;;;5089909;28;20048;-78
2023/03/16 13:56:03;;;;;;;1.60;0.75;;;;;;;;;;5091549;28;20044;-77
2023/03/16 13:58:36;;;;;;;2.08;1.00;;;;;;;;;;5091055;28;20052;-78
2023/03/16 14:01:24;;;;;;;6.40;3.92;;;;;;;;;;5090581;28;20499;-78
2023/03/16 14:03:58;;;;;;;1.58;1.10;;;;;;;;;;5094166;28;20040;-78
2023/03/16 14:06:33;;;;;;;1.77;0.90;;;;;;;;;;5091808;28;20056;-75
2023/03/16 14:09:20;;;;;;;2.65;0.90;;;;;;;;;;5092602;28;20032;-75
2023/03/16 14:11:50;;;;;;;2.92;1.10;;;;;;;;;;5090221;28;20044;-76
2023/03/16 14:14:28;;;;;;;4.43;1.13;;;;;;;;;;5088133;28;20426;-75
2023/03/16 14:17:08;;;;;;;3.10;1.10;;;;;;;;;;5095008;28;20052;-75
2023/03/16 14:19:56;;;;;;;4.00;0.98;;;;;;;;;;5090374;28;20055;-75
2023/03/16 14:22:36;;;;;;;1.83;0.82;;;;;;;;;;5089921;28;20040;-78
2023/03/16 14:25:16;;;;;;;3.53;1.33;;;;;;;;;;5090281;28;20052;-76
2023/03/16 14:27:47;;;;;;;4.55;0.90;;;;;;;;;;5092835;28;20055;-77
2023/03/16 14:30:23;;;;;;;2.05;0.98;;;;;;;;;;5089648;28;20055;-76
2023/03/16 14:33:05;;;;;;;3.53;1.17;;;;;;;;;;5087945;28;20507;-75
2023/03/16 14:35:42;;;;;;;8.43;1.35;;;;;;;;;;5087129;28;20480;-77
2023/03/16 14:38:22;;;;;;;2.53;0.82;;;;;;;;;;5087888;28;20052;-75
2023/03/16 14:41:02;;;;;;;1.35;0.85;;;;;;;;;;5088118;28;20515;-74
2023/03/16 14:43:35;;;;;;;1.50;0.88;;;;;;;;;;5088481;28;20040;-78
2023/03/16 14:46:10;;;;;;;2.47;0.93;;;;;;;;;;5088420;28;20043;-76
2023/03/16 14:48:41;;;;;;;1.80;0.93;;;;;;;;;;5088968;28;20040;-79
2023/03/16 14:51:15;;;;;;;2.70;1.00;;;;;;;;;;5087916;28;20044;-77
2023/03/16 14:53:46;;;;;;;2.55;1.55;;;;;;;;;;5090440;28;20056;-77
2023/03/16 14:56:16;;;;;;;3.10;0.90;;;;;;;;;;5091524;28;20044;-76
2023/03/16 14:58:48;;;;;;;1.02;0.80;;;;;;;;;;5089673;28;20106;-76
2023/03/16 15:01:18;;;;;;;2.72;0.85;;;;;;;;;;5088046;28;20518;-77
2023/03/16 15:03:48;;;;;;;2.50;0.85;;;;;;;;;;5092514;28;20056;-75
2023/03/16 15:06:20;;;;;;;2.50;0.80;;;;;;;;;;5090835;28;20406;-76
2023/03/16 15:08:51;;;;;;;3.35;0.93;;;;;;;;;;5092847;28;20479;-79
2023/03/16 15:11:23;;;;;;;2.05;0.80;;;;;;;;;;5089099;28;20047;-76
2023/03/16 15:14:03;;;;;;;0.80;0.60;;;;;;;;;;5089042;28;20048;-80
2023/03/16 15:16:33;;;;;;;3.78;0.80;;;;;;;;;;5090156;28;20729;-79
2023/03/16 15:19:07;;;;;;;4.07;0.95;;;;;;;;;;5089064;28;20051;-78
2023/03/16 15:21:38;;;;;;;4.53;1.45;;;;;;;;;;5088325;28;20051;-78
2023/03/16 15:24:11;;;;;;;2.15;0.75;;;;;;;;;;5088579;28;20040;-73
2023/03/16 15:26:42;;;;;;;5.95;1.00;;;;;;;;;;5091385;28;20047;-75
2023/03/16 15:29:14;;;;;;;3.15;0.85;;;;;;;;;;5089068;28;20189;-78
2023/03/16 15:31:45;;;;;;;3.08;0.98;;;;;;;;;;5092345;28;20043;-76
2023/03/16 15:34:16;;;;;;;3.80;0.73;;;;;;;;;;5089349;28;20048;-74
2023/03/16 15:36:47;;;;;;;3.55;1.00;;;;;;;;;;5087876;28;20036;-76